Joyceton, North Carolina
Current Conditions -  °F | °C
As of 8:35 AM on Friday 28 Nov 2014 (Local Time) from KMRN Reporting Station
Clear Clear  
Wind Chill: 31°   Ceiling: Unl
Heat Index: 31°   Visibility: 10mi
Dew Point: 20°   Wind: 0mph
Humidity: 62%   Direction: NA
Pressure: 30.41"   Gusts: NA
Location:  35.9726°N, 81.5331°W
Report Text: KMRN 281335Z AUTO 00000KT 10SM CLR 00/M07 A3041 RMK AO2 T10051069
Loading
Personal Weather Stations






























Interactive Weather Map New forecast layout! Learn more

10-Day Weather Forecast

Advertisements
Track Severe Weather on mobile